sensor_id;sensor_type;location;lat;lon;timestamp;pressure;altitude;pressure_sealevel;temperature
24639;BMP180;1641;51.306;12.384;2023-04-25T00:00:33;99308.00;;;10.30
24639;BMP180;1641;51.306;12.384;2023-04-25T00:02:58;99305.00;;;10.30
24639;BMP180;1641;51.306;12.384;2023-04-25T00:05:28;99311.00;;;10.50
24639;BMP180;1641;51.306;12.384;2023-04-25T00:07:54;99288.00;;;10.30
24639;BMP180;1641;51.306;12.384;2023-04-25T00:10:20;99305.00;;;10.00
24639;BMP180;1641;51.306;12.384;2023-04-25T00:12:45;99291.00;;;10.30
24639;BMP180;1641;51.306;12.384;2023-04-25T00:15:14;99291.00;;;10.30
24639;BMP180;1641;51.306;12.384;2023-04-25T00:17:39;99296.00;;;10.10
24639;BMP180;1641;51.306;12.384;2023-04-25T00:20:05;99296.00;;;9.80
24639;BMP180;1641;51.306;12.384;2023-04-25T00:22:31;99268.00;;;10.00
24639;BMP180;1641;51.306;12.384;2023-04-25T00:24:58;99299.00;;;9.90
24639;BMP180;1641;51.306;12.384;2023-04-25T00:27:26;99291.00;;;9.80
24639;BMP180;1641;51.306;12.384;2023-04-25T00:29:51;99297.00;;;9.40
24639;BMP180;1641;51.306;12.384;2023-04-25T00:32:16;99294.00;;;9.30
24639;BMP180;1641;51.306;12.384;2023-04-25T00:34:44;99300.00;;;9.50
24639;BMP180;1641;51.306;12.384;2023-04-25T00:37:10;99306.00;;;9.40
24639;BMP180;1641;51.306;12.384;2023-04-25T00:39:35;99290.00;;;9.30
24639;BMP180;1641;51.306;12.384;2023-04-25T00:42:00;99291.00;;;9.20
24639;BMP180;1641;51.306;12.384;2023-04-25T00:44:27;99308.00;;;9.20
24639;BMP180;1641;51.306;12.384;2023-04-25T00:46:54;99300.00;;;9.30
24639;BMP180;1641;51.306;12.384;2023-04-25T00:49:20;99279.00;;;9.50
24639;BMP180;1641;51.306;12.384;2023-04-25T00:51:45;99298.00;;;9.40
24639;BMP180;1641;51.306;12.384;2023-04-25T00:54:13;99296.00;;;9.30
24639;BMP180;1641;51.306;12.384;2023-04-25T00:56:39;99295.00;;;9.30
24639;BMP180;1641;51.306;12.384;2023-04-25T00:59:05;99297.00;;;9.30
24639;BMP180;1641;51.306;12.384;2023-04-25T01:01:30;99309.00;;;9.20
24639;BMP180;1641;51.306;12.384;2023-04-25T01:03:58;99313.00;;;9.20
24639;BMP180;1641;51.306;12.384;2023-04-25T01:06:26;99270.00;;;9.10
24639;BMP180;1641;51.306;12.384;2023-04-25T01:08:56;99297.00;;;8.90
24639;BMP180;1641;51.306;12.384;2023-04-25T01:11:24;99295.00;;;8.90
24639;BMP180;1641;51.306;12.384;2023-04-25T01:13:49;99259.00;;;9.00
24639;BMP180;1641;51.306;12.384;2023-04-25T01:16:15;99296.00;;;8.80
24639;BMP180;1641;51.306;12.384;2023-04-25T01:18:43;99298.00;;;8.70
24639;BMP180;1641;51.306;12.384;2023-04-25T01:21:11;99296.00;;;8.80
24639;BMP180;1641;51.306;12.384;2023-04-25T01:23:38;99290.00;;;9.00
24639;BMP180;1641;51.306;12.384;2023-04-25T01:26:04;99293.00;;;8.80
24639;BMP180;1641;51.306;12.384;2023-04-25T01:28:30;99291.00;;;8.90
24639;BMP180;1641;51.306;12.384;2023-04-25T01:30:56;99277.00;;;8.90
24639;BMP180;1641;51.306;12.384;2023-04-25T01:33:22;99296.00;;;8.80
24639;BMP180;1641;51.306;12.384;2023-04-25T01:35:47;99305.00;;;8.90
24639;BMP180;1641;51.306;12.384;2023-04-25T01:38:13;99279.00;;;8.80
24639;BMP180;1641;51.306;12.384;2023-04-25T01:40:40;99262.00;;;8.70
24639;BMP180;1641;51.306;12.384;2023-04-25T01:43:06;99298.00;;;8.70
24639;BMP180;1641;51.306;12.384;2023-04-25T01:45:36;99298.00;;;8.60
24639;BMP180;1641;51.306;12.384;2023-04-25T01:48:04;99305.00;;;8.60
24639;BMP180;1641;51.306;12.384;2023-04-25T01:50:30;99311.00;;;8.70
24639;BMP180;1641;51.306;12.384;2023-04-25T01:52:56;99298.00;;;8.80
24639;BMP180;1641;51.306;12.384;2023-04-25T01:55:21;99305.00;;;8.80
24639;BMP180;1641;51.306;12.384;2023-04-25T01:57:47;99305.00;;;8.60
24639;BMP180;1641;51.306;12.384;2023-04-25T02:00:12;99306.00;;;8.80
24639;BMP180;1641;51.306;12.384;2023-04-25T02:02:41;99306.00;;;9.10
24639;BMP180;1641;51.306;12.384;2023-04-25T02:05:06;99295.00;;;8.80
24639;BMP180;1641;51.306;12.384;2023-04-25T02:07:32;99293.00;;;9.00
24639;BMP180;1641;51.306;12.384;2023-04-25T02:09:57;99288.00;;;8.60
24639;BMP180;1641;51.306;12.384;2023-04-25T02:12:26;99294.00;;;8.50
24639;BMP180;1641;51.306;12.384;2023-04-25T02:14:52;99283.00;;;8.60
24639;BMP180;1641;51.306;12.384;2023-04-25T02:17:17;99294.00;;;8.50
24639;BMP180;1641;51.306;12.384;2023-04-25T02:19:43;99298.00;;;8.40
24639;BMP180;1641;51.306;12.384;2023-04-25T02:22:08;99289.00;;;8.50
24639;BMP180;1641;51.306;12.384;2023-04-25T02:24:33;99296.00;;;8.90
24639;BMP180;1641;51.306;12.384;2023-04-25T02:27:00;99289.00;;;8.50
24639;BMP180;1641;51.306;12.384;2023-04-25T02:29:25;99269.00;;;8.60
24639;BMP180;1641;51.306;12.384;2023-04-25T02:31:50;99288.00;;;8.40
24639;BMP180;1641;51.306;12.384;2023-04-25T02:34:16;99280.00;;;8.30
24639;BMP180;1641;51.306;12.384;2023-04-25T02:36:41;99285.00;;;8.10
24639;BMP180;1641;51.306;12.384;2023-04-25T02:39:09;99274.00;;;8.10
24639;BMP180;1641;51.306;12.384;2023-04-25T02:41:35;99270.00;;;8.20
24639;BMP180;1641;51.306;12.384;2023-04-25T02:44:03;99277.00;;;8.30
24639;BMP180;1641;51.306;12.384;2023-04-25T02:46:31;99277.00;;;8.40
24639;BMP180;1641;51.306;12.384;2023-04-25T02:48:57;99267.00;;;8.60
24639;BMP180;1641;51.306;12.384;2023-04-25T02:51:22;99273.00;;;8.80
24639;BMP180;1641;51.306;12.384;2023-04-25T02:53:47;99260.00;;;8.30
24639;BMP180;1641;51.306;12.384;2023-04-25T02:56:12;99278.00;;;8.20
24639;BMP180;1641;51.306;12.384;2023-04-25T02:58:38;99275.00;;;8.20
24639;BMP180;1641;51.306;12.384;2023-04-25T03:01:04;99285.00;;;8.40
24639;BMP180;1641;51.306;12.384;2023-04-25T03:03:29;99247.00;;;8.30
24639;BMP180;1641;51.306;12.384;2023-04-25T03:05:54;99252.00;;;8.20
24639;BMP180;1641;51.306;12.384;2023-04-25T03:08:19;99254.00;;;8.30
24639;BMP180;1641;51.306;12.384;2023-04-25T03:10:45;99260.00;;;8.30
24639;BMP180;1641;51.306;12.384;2023-04-25T03:13:10;99276.00;;;8.20
24639;BMP180;1641;51.306;12.384;2023-04-25T03:15:37;99268.00;;;7.90
24639;BMP180;1641;51.306;12.384;2023-04-25T03:18:02;99286.00;;;7.80
24639;BMP180;1641;51.306;12.384;2023-04-25T03:20:28;99267.00;;;7.90
24639;BMP180;1641;51.306;12.384;2023-04-25T03:22:53;99282.00;;;7.90
24639;BMP180;1641;51.306;12.384;2023-04-25T03:25:18;99292.00;;;7.70
24639;BMP180;1641;51.306;12.384;2023-04-25T03:27:44;99278.00;;;7.80
24639;BMP180;1641;51.306;12.384;2023-04-25T03:30:09;99282.00;;;8.10
24639;BMP180;1641;51.306;12.384;2023-04-25T03:32:35;99196.00;;;8.70
24639;BMP180;1641;51.306;12.384;2023-04-25T03:35:00;99281.00;;;8.40
24639;BMP180;1641;51.306;12.384;2023-04-25T03:37:25;99281.00;;;8.30
24639;BMP180;1641;51.306;12.384;2023-04-25T03:39:53;99281.00;;;7.90
24639;BMP180;1641;51.306;12.384;2023-04-25T03:42:18;99273.00;;;7.80
24639;BMP180;1641;51.306;12.384;2023-04-25T03:44:44;99274.00;;;8.10
24639;BMP180;1641;51.306;12.384;2023-04-25T03:47:10;99271.00;;;7.80
24639;BMP180;1641;51.306;12.384;2023-04-25T03:49:35;99280.00;;;7.60
24639;BMP180;1641;51.306;12.384;2023-04-25T03:52:01;99275.00;;;7.70
24639;BMP180;1641;51.306;12.384;2023-04-25T03:54:26;99276.00;;;7.60
24639;BMP180;1641;51.306;12.384;2023-04-25T03:56:52;99268.00;;;7.60
24639;BMP180;1641;51.306;12.384;2023-04-25T03:59:17;99273.00;;;7.60
24639;BMP180;1641;51.306;12.384;2023-04-25T04:01:42;99258.00;;;7.60
24639;BMP180;1641;51.306;12.384;2023-04-25T04:04:10;99281.00;;;7.90
24639;BMP180;1641;51.306;12.384;2023-04-25T04:06:38;99282.00;;;8.20
24639;BMP180;1641;51.306;12.384;2023-04-25T04:09:04;99220.00;;;8.00
24639;BMP180;1641;51.306;12.384;2023-04-25T04:11:29;99227.00;;;8.00
24639;BMP180;1641;51.306;12.384;2023-04-25T04:13:54;99284.00;;;8.00
24639;BMP180;1641;51.306;12.384;2023-04-25T04:16:20;99275.00;;;8.20
24639;BMP180;1641;51.306;12.384;2023-04-25T04:18:45;99281.00;;;8.70
24639;BMP180;1641;51.306;12.384;2023-04-25T04:21:11;99284.00;;;8.80
24639;BMP180;1641;51.306;12.384;2023-04-25T04:23:36;99292.00;;;8.20
24639;BMP180;1641;51.306;12.384;2023-04-25T04:26:02;99282.00;;;8.00
24639;BMP180;1641;51.306;12.384;2023-04-25T04:28:27;99289.00;;;8.00
24639;BMP180;1641;51.306;12.384;2023-04-25T04:30:53;99288.00;;;8.00
24639;BMP180;1641;51.306;12.384;2023-04-25T04:33:18;99279.00;;;7.90
24639;BMP180;1641;51.306;12.384;2023-04-25T04:35:46;99300.00;;;7.90
24639;BMP180;1641;51.306;12.384;2023-04-25T04:38:12;99292.00;;;8.00
24639;BMP180;1641;51.306;12.384;2023-04-25T04:40:40;99294.00;;;8.10
24639;BMP180;1641;51.306;12.384;2023-04-25T04:43:06;99314.00;;;8.00
24639;BMP180;1641;51.306;12.384;2023-04-25T04:45:33;99309.00;;;8.00
24639;BMP180;1641;51.306;12.384;2023-04-25T04:47:59;99294.00;;;8.30
24639;BMP180;1641;51.306;12.384;2023-04-25T04:50:24;99310.00;;;8.70
24639;BMP180;1641;51.306;12.384;2023-04-25T04:52:49;99308.00;;;8.30
24639;BMP180;1641;51.306;12.384;2023-04-25T04:55:14;99310.00;;;8.10
24639;BMP180;1641;51.306;12.384;2023-04-25T04:57:40;99299.00;;;8.10
24639;BMP180;1641;51.306;12.384;2023-04-25T05:00:05;99314.00;;;8.20
24639;BMP180;1641;51.306;12.384;2023-04-25T05:02:35;99295.00;;;8.30
24639;BMP180;1641;51.306;12.384;2023-04-25T05:05:00;99283.00;;;8.40
24639;BMP180;1641;51.306;12.384;2023-04-25T05:07:26;99291.00;;;8.40
24639;BMP180;1641;51.306;12.384;2023-04-25T05:09:51;99319.00;;;8.80
24639;BMP180;1641;51.306;12.384;2023-04-25T05:12:16;99257.00;;;8.50
24639;BMP180;1641;51.306;12.384;2023-04-25T05:14:41;99290.00;;;8.60
24639;BMP180;1641;51.306;12.384;2023-04-25T05:17:06;99289.00;;;8.70
24639;BMP180;1641;51.306;12.384;2023-04-25T05:19:33;99322.00;;;8.70
24639;BMP180;1641;51.306;12.384;2023-04-25T05:21:59;99324.00;;;8.60
24639;BMP180;1641;51.306;12.384;2023-04-25T05:24:24;99317.00;;;8.80
24639;BMP180;1641;51.306;12.384;2023-04-25T05:26:49;99321.00;;;8.80
24639;BMP180;1641;51.306;12.384;2023-04-25T05:29:14;99283.00;;;8.80
24639;BMP180;1641;51.306;12.384;2023-04-25T05:31:40;99315.00;;;9.20
24639;BMP180;1641;51.306;12.384;2023-04-25T05:34:05;99300.00;;;9.30
24639;BMP180;1641;51.306;12.384;2023-04-25T05:36:31;99310.00;;;9.40
24639;BMP180;1641;51.306;12.384;2023-04-25T05:38:57;99312.00;;;9.30
24639;BMP180;1641;51.306;12.384;2023-04-25T05:41:23;99318.00;;;9.10
24639;BMP180;1641;51.306;12.384;2023-04-25T05:43:48;99283.00;;;9.30
24639;BMP180;1641;51.306;12.384;2023-04-25T05:46:14;99318.00;;;9.60
24639;BMP180;1641;51.306;12.384;2023-04-25T05:48:41;99316.00;;;9.60
24639;BMP180;1641;51.306;12.384;2023-04-25T05:51:07;99316.00;;;9.20
24639;BMP180;1641;51.306;12.384;2023-04-25T05:53:32;99318.00;;;9.50
24639;BMP180;1641;51.306;12.384;2023-04-25T05:55:57;99246.00;;;9.60
24639;BMP180;1641;51.306;12.384;2023-04-25T05:58:22;99289.00;;;9.80
24639;BMP180;1641;51.306;12.384;2023-04-25T06:00:48;99298.00;;;11.10
24639;BMP180;1641;51.306;12.384;2023-04-25T06:03:13;99288.00;;;11.80
24639;BMP180;1641;51.306;12.384;2023-04-25T06:05:42;99338.00;;;12.90
24639;BMP180;1641;51.306;12.384;2023-04-25T06:08:08;99349.00;;;13.90
24639;BMP180;1641;51.306;12.384;2023-04-25T06:10:33;99312.00;;;14.90
24639;BMP180;1641;51.306;12.384;2023-04-25T06:12:59;99343.00;;;14.20
24639;BMP180;1641;51.306;12.384;2023-04-25T06:15:24;99347.00;;;13.20
24639;BMP180;1641;51.306;12.384;2023-04-25T06:17:49;99318.00;;;12.50
24639;BMP180;1641;51.306;12.384;2023-04-25T06:20:15;99345.00;;;12.10
24639;BMP180;1641;51.306;12.384;2023-04-25T06:22:40;99352.00;;;12.80
24639;BMP180;1641;51.306;12.384;2023-04-25T06:25:05;99321.00;;;12.00
24639;BMP180;1641;51.306;12.384;2023-04-25T06:27:32;99355.00;;;14.30
24639;BMP180;1641;51.306;12.384;2023-04-25T06:29:57;99356.00;;;14.90
24639;BMP180;1641;51.306;12.384;2023-04-25T06:32:23;99346.00;;;12.30
24639;BMP180;1641;51.306;12.384;2023-04-25T06:34:48;99356.00;;;12.00
24639;BMP180;1641;51.306;12.384;2023-04-25T06:37:13;99350.00;;;11.10
24639;BMP180;1641;51.306;12.384;2023-04-25T06:39:38;99369.00;;;11.50
24639;BMP180;1641;51.306;12.384;2023-04-25T06:42:04;99349.00;;;10.30
24639;BMP180;1641;51.306;12.384;2023-04-25T06:44:29;99379.00;;;10.90
24639;BMP180;1641;51.306;12.384;2023-04-25T06:46:55;99368.00;;;11.00
24639;BMP180;1641;51.306;12.384;2023-04-25T06:49:20;99364.00;;;10.50
24639;BMP180;1641;51.306;12.384;2023-04-25T06:51:45;99326.00;;;10.10
24639;BMP180;1641;51.306;12.384;2023-04-25T06:54:10;99289.00;;;10.40
24639;BMP180;1641;51.306;12.384;2023-04-25T06:56:36;99371.00;;;10.50
24639;BMP180;1641;51.306;12.384;2023-04-25T06:59:01;99361.00;;;11.00
24639;BMP180;1641;51.306;12.384;2023-04-25T07:01:26;99365.00;;;10.80
24639;BMP180;1641;51.306;12.384;2023-04-25T07:03:52;99309.00;;;10.40
24639;BMP180;1641;51.306;12.384;2023-04-25T07:06:17;99368.00;;;10.50
24639;BMP180;1641;51.306;12.384;2023-04-25T07:08:42;99383.00;;;10.40
24639;BMP180;1641;51.306;12.384;2023-04-25T07:11:08;99322.00;;;10.60
24639;BMP180;1641;51.306;12.384;2023-04-25T07:13:33;99388.00;;;10.10
24639;BMP180;1641;51.306;12.384;2023-04-25T07:15:59;99388.00;;;10.30
24639;BMP180;1641;51.306;12.384;2023-04-25T07:18:24;99309.00;;;10.50
24639;BMP180;1641;51.306;12.384;2023-04-25T07:20:50;99395.00;;;10.10
24639;BMP180;1641;51.306;12.384;2023-04-25T07:23:15;99379.00;;;10.00
24639;BMP180;1641;51.306;12.384;2023-04-25T07:25:40;99384.00;;;10.20
24639;BMP180;1641;51.306;12.384;2023-04-25T07:28:05;99388.00;;;10.40
24639;BMP180;1641;51.306;12.384;2023-04-25T07:30:31;99394.00;;;9.90
24639;BMP180;1641;51.306;12.384;2023-04-25T07:32:56;99401.00;;;10.30
24639;BMP180;1641;51.306;12.384;2023-04-25T07:35:21;99400.00;;;10.60
24639;BMP180;1641;51.306;12.384;2023-04-25T07:37:47;99394.00;;;9.80
24639;BMP180;1641;51.306;12.384;2023-04-25T07:40:13;99414.00;;;9.90
24639;BMP180;1641;51.306;12.384;2023-04-25T07:42:40;99411.00;;;10.00
24639;BMP180;1641;51.306;12.384;2023-04-25T07:45:06;99352.00;;;10.00
24639;BMP180;1641;51.306;12.384;2023-04-25T07:47:31;99397.00;;;9.80
24639;BMP180;1641;51.306;12.384;2023-04-25T07:49:57;99410.00;;;9.80
24639;BMP180;1641;51.306;12.384;2023-04-25T07:52:22;99387.00;;;10.20
24639;BMP180;1641;51.306;12.384;2023-04-25T07:54:48;99407.00;;;9.90
24639;BMP180;1641;51.306;12.384;2023-04-25T07:57:13;99402.00;;;9.70
24639;BMP180;1641;51.306;12.384;2023-04-25T07:59:39;99380.00;;;9.90
24639;BMP180;1641;51.306;12.384;2023-04-25T08:02:05;99395.00;;;10.40
24639;BMP180;1641;51.306;12.384;2023-04-25T08:04:30;99424.00;;;10.60
24639;BMP180;1641;51.306;12.384;2023-04-25T08:06:55;99427.00;;;10.80
24639;BMP180;1641;51.306;12.384;2023-04-25T08:09:21;99434.00;;;10.70
24639;BMP180;1641;51.306;12.384;2023-04-25T08:11:47;99437.00;;;10.60
24639;BMP180;1641;51.306;12.384;2023-04-25T08:14:12;99448.00;;;10.10
24639;BMP180;1641;51.306;12.384;2023-04-25T08:16:38;99438.00;;;9.90
24639;BMP180;1641;51.306;12.384;2023-04-25T08:19:03;99443.00;;;10.10
24639;BMP180;1641;51.306;12.384;2023-04-25T08:21:29;99452.00;;;9.90
24639;BMP180;1641;51.306;12.384;2023-04-25T08:23:55;99442.00;;;9.90
24639;BMP180;1641;51.306;12.384;2023-04-25T08:26:21;99411.00;;;9.80
24639;BMP180;1641;51.306;12.384;2023-04-25T08:28:46;99457.00;;;10.10
24639;BMP180;1641;51.306;12.384;2023-04-25T08:31:12;99413.00;;;10.30
24639;BMP180;1641;51.306;12.384;2023-04-25T08:33:37;99455.00;;;10.20
24639;BMP180;1641;51.306;12.384;2023-04-25T08:36:02;99460.00;;;10.10
24639;BMP180;1641;51.306;12.384;2023-04-25T08:38:28;99451.00;;;10.00
24639;BMP180;1641;51.306;12.384;2023-04-25T08:40:54;99427.00;;;10.30
24639;BMP180;1641;51.306;12.384;2023-04-25T08:43:20;99468.00;;;10.50
24639;BMP180;1641;51.306;12.384;2023-04-25T08:45:46;99471.00;;;11.30
24639;BMP180;1641;51.306;12.384;2023-04-25T08:48:13;99468.00;;;11.30
24639;BMP180;1641;51.306;12.384;2023-04-25T08:50:52;99474.00;;;10.80
24639;BMP180;1641;51.306;12.384;2023-04-25T08:53:26;99441.00;;;11.10
24639;BMP180;1641;51.306;12.384;2023-04-25T08:55:53;99478.00;;;10.90
24639;BMP180;1641;51.306;12.384;2023-04-25T08:58:19;99456.00;;;10.90
24639;BMP180;1641;51.306;12.384;2023-04-25T09:00:46;99476.00;;;11.10
24639;BMP180;1641;51.306;12.384;2023-04-25T09:03:12;99494.00;;;10.80
24639;BMP180;1641;51.306;12.384;2023-04-25T09:05:39;99490.00;;;10.40
24639;BMP180;1641;51.306;12.384;2023-04-25T09:08:05;99494.00;;;10.40
24639;BMP180;1641;51.306;12.384;2023-04-25T09:10:30;99505.00;;;10.30
24639;BMP180;1641;51.306;12.384;2023-04-25T09:13:12;99505.00;;;10.30
24639;BMP180;1641;51.306;12.384;2023-04-25T09:15:55;99494.00;;;10.90
24639;BMP180;1641;51.306;12.384;2023-04-25T09:18:35;99503.00;;;11.60
24639;BMP180;1641;51.306;12.384;2023-04-25T09:21:08;99500.00;;;12.50
24639;BMP180;1641;51.306;12.384;2023-04-25T09:23:54;99514.00;;;12.80
24639;BMP180;1641;51.306;12.384;2023-04-25T09:26:20;99515.00;;;12.20
24639;BMP180;1641;51.306;12.384;2023-04-25T09:28:46;99512.00;;;11.50
24639;BMP180;1641;51.306;12.384;2023-04-25T09:31:21;99487.00;;;11.10
24639;BMP180;1641;51.306;12.384;2023-04-25T09:33:46;99509.00;;;10.50
24639;BMP180;1641;51.306;12.384;2023-04-25T09:36:12;99536.00;;;10.50
24639;BMP180;1641;51.306;12.384;2023-04-25T09:38:43;99494.00;;;10.40
24639;BMP180;1641;51.306;12.384;2023-04-25T09:41:09;99499.00;;;10.60
24639;BMP180;1641;51.306;12.384;2023-04-25T09:43:35;99541.00;;;10.30
24639;BMP180;1641;51.306;12.384;2023-04-25T09:46:01;99542.00;;;10.30
24639;BMP180;1641;51.306;12.384;2023-04-25T09:48:27;99521.00;;;10.40
24639;BMP180;1641;51.306;12.384;2023-04-25T09:51:06;99535.00;;;10.00
24639;BMP180;1641;51.306;12.384;2023-04-25T09:53:34;99536.00;;;10.00
24639;BMP180;1641;51.306;12.384;2023-04-25T09:56:00;99570.00;;;10.10
24639;BMP180;1641;51.306;12.384;2023-04-25T09:58:26;99549.00;;;10.80
24639;BMP180;1641;51.306;12.384;2023-04-25T10:00:56;99546.00;;;10.70
24639;BMP180;1641;51.306;12.384;2023-04-25T10:03:25;99552.00;;;10.80
24639;BMP180;1641;51.306;12.384;2023-04-25T10:05:51;99546.00;;;11.20
24639;BMP180;1641;51.306;12.384;2023-04-25T10:08:17;99560.00;;;11.20
24639;BMP180;1641;51.306;12.384;2023-04-25T10:10:44;99549.00;;;11.10
24639;BMP180;1641;51.306;12.384;2023-04-25T10:13:11;99563.00;;;11.30
24639;BMP180;1641;51.306;12.384;2023-04-25T10:15:36;99569.00;;;11.90
24639;BMP180;1641;51.306;12.384;2023-04-25T10:18:02;99551.00;;;11.80
24639;BMP180;1641;51.306;12.384;2023-04-25T10:20:28;99557.00;;;11.00
24639;BMP180;1641;51.306;12.384;2023-04-25T10:22:55;99550.00;;;10.90
24639;BMP180;1641;51.306;12.384;2023-04-25T10:25:23;99557.00;;;10.70
24639;BMP180;1641;51.306;12.384;2023-04-25T10:27:52;99562.00;;;10.60
24639;BMP180;1641;51.306;12.384;2023-04-25T10:30:18;99552.00;;;10.80
24639;BMP180;1641;51.306;12.384;2023-04-25T10:32:45;99527.00;;;11.00
24639;BMP180;1641;51.306;12.384;2023-04-25T10:35:18;99551.00;;;10.70
24639;BMP180;1641;51.306;12.384;2023-04-25T10:38:09;99563.00;;;11.10
24639;BMP180;1641;51.306;12.384;2023-04-25T10:40:35;99537.00;;;10.90
24639;BMP180;1641;51.306;12.384;2023-04-25T10:46:22;99561.00;;;10.40
24639;BMP180;1641;51.306;12.384;2023-04-25T10:48:49;99568.00;;;11.00
24639;BMP180;1641;51.306;12.384;2023-04-25T10:51:20;99543.00;;;10.40
24639;BMP180;1641;51.306;12.384;2023-04-25T10:53:48;99532.00;;;10.60
24639;BMP180;1641;51.306;12.384;2023-04-25T10:56:22;99553.00;;;10.90
24639;BMP180;1641;51.306;12.384;2023-04-25T10:58:48;99564.00;;;11.00
24639;BMP180;1641;51.306;12.384;2023-04-25T11:01:24;99543.00;;;10.70
24639;BMP180;1641;51.306;12.384;2023-04-25T11:03:57;99546.00;;;10.60
24639;BMP180;1641;51.306;12.384;2023-04-25T11:06:29;99574.00;;;11.00
24639;BMP180;1641;51.306;12.384;2023-04-25T11:08:56;99582.00;;;10.80
24639;BMP180;1641;51.306;12.384;2023-04-25T11:11:22;99579.00;;;10.70
24639;BMP180;1641;51.306;12.384;2023-04-25T11:13:48;99532.00;;;10.90
24639;BMP180;1641;51.306;12.384;2023-04-25T11:16:18;99590.00;;;11.30
24639;BMP180;1641;51.306;12.384;2023-04-25T11:18:49;99581.00;;;11.20
24639;BMP180;1641;51.306;12.384;2023-04-25T11:21:18;99555.00;;;11.00
24639;BMP180;1641;51.306;12.384;2023-04-25T11:23:46;99582.00;;;11.00
24639;BMP180;1641;51.306;12.384;2023-04-25T11:26:13;99561.00;;;11.10
24639;BMP180;1641;51.306;12.384;2023-04-25T11:28:38;99578.00;;;10.90
24639;BMP180;1641;51.306;12.384;2023-04-25T11:31:10;99568.00;;;10.70
24639;BMP180;1641;51.306;12.384;2023-04-25T11:33:38;99588.00;;;10.60
24639;BMP180;1641;51.306;12.384;2023-04-25T11:36:06;99591.00;;;10.60
24639;BMP180;1641;51.306;12.384;2023-04-25T11:38:31;99593.00;;;10.30
24639;BMP180;1641;51.306;12.384;2023-04-25T11:40:57;99601.00;;;10.20
24639;BMP180;1641;51.306;12.384;2023-04-25T11:43:22;99605.00;;;10.30
24639;BMP180;1641;51.306;12.384;2023-04-25T11:45:49;99602.00;;;10.70
24639;BMP180;1641;51.306;12.384;2023-04-25T11:48:18;99600.00;;;10.60
24639;BMP180;1641;51.306;12.384;2023-04-25T11:50:44;99609.00;;;11.10
24639;BMP180;1641;51.306;12.384;2023-04-25T11:53:10;99592.00;;;11.20
24639;BMP180;1641;51.306;12.384;2023-04-25T11:55:36;99607.00;;;10.90
24639;BMP180;1641;51.306;12.384;2023-04-25T11:58:01;99604.00;;;11.10
24639;BMP180;1641;51.306;12.384;2023-04-25T12:00:31;99619.00;;;11.10
24639;BMP180;1641;51.306;12.384;2023-04-25T12:02:57;99602.00;;;11.60
24639;BMP180;1641;51.306;12.384;2023-04-25T12:05:29;99619.00;;;11.10
24639;BMP180;1641;51.306;12.384;2023-04-25T12:07:55;99599.00;;;10.90
24639;BMP180;1641;51.306;12.384;2023-04-25T12:10:25;99625.00;;;11.40
24639;BMP180;1641;51.306;12.384;2023-04-25T12:12:50;99618.00;;;11.40
24639;BMP180;1641;51.306;12.384;2023-04-25T12:15:18;99629.00;;;11.30
24639;BMP180;1641;51.306;12.384;2023-04-25T12:17:47;99612.00;;;10.90
24639;BMP180;1641;51.306;12.384;2023-04-25T12:20:19;99618.00;;;11.10
24639;BMP180;1641;51.306;12.384;2023-04-25T12:22:57;99613.00;;;11.60
24639;BMP180;1641;51.306;12.384;2023-04-25T12:25:42;99608.00;;;12.00
24639;BMP180;1641;51.306;12.384;2023-04-25T12:28:13;99620.00;;;12.40
24639;BMP180;1641;51.306;12.384;2023-04-25T12:31:01;99618.00;;;12.00
24639;BMP180;1641;51.306;12.384;2023-04-25T12:33:37;99621.00;;;11.60
24639;BMP180;1641;51.306;12.384;2023-04-25T12:36:06;99613.00;;;11.70
24639;BMP180;1641;51.306;12.384;2023-04-25T12:38:41;99615.00;;;12.00
24639;BMP180;1641;51.306;12.384;2023-04-25T12:41:07;99619.00;;;11.80
24639;BMP180;1641;51.306;12.384;2023-04-25T12:43:33;99604.00;;;11.30
24639;BMP180;1641;51.306;12.384;2023-04-25T12:45:58;99630.00;;;11.40
24639;BMP180;1641;51.306;12.384;2023-04-25T12:48:26;99625.00;;;11.70
24639;BMP180;1641;51.306;12.384;2023-04-25T12:50:52;99625.00;;;11.90
24639;BMP180;1641;51.306;12.384;2023-04-25T12:53:21;99624.00;;;11.40
24639;BMP180;1641;51.306;12.384;2023-04-25T12:55:50;99631.00;;;11.20
24639;BMP180;1641;51.306;12.384;2023-04-25T12:58:18;99588.00;;;11.40
24639;BMP180;1641;51.306;12.384;2023-04-25T13:00:44;99620.00;;;10.90
24639;BMP180;1641;51.306;12.384;2023-04-25T13:03:10;99609.00;;;11.10
24639;BMP180;1641;51.306;12.384;2023-04-25T13:05:42;99649.00;;;11.10
24639;BMP180;1641;51.306;12.384;2023-04-25T13:08:11;99648.00;;;10.50
24639;BMP180;1641;51.306;12.384;2023-04-25T13:10:36;99634.00;;;10.50
24639;BMP180;1641;51.306;12.384;2023-04-25T13:13:03;99634.00;;;10.50
24639;BMP180;1641;51.306;12.384;2023-04-25T13:15:31;99652.00;;;10.70
24639;BMP180;1641;51.306;12.384;2023-04-25T13:17:57;99647.00;;;10.50
24639;BMP180;1641;51.306;12.384;2023-04-25T13:20:22;99608.00;;;10.80
24639;BMP180;1641;51.306;12.384;2023-04-25T13:22:48;99634.00;;;11.20
24639;BMP180;1641;51.306;12.384;2023-04-25T13:25:15;99640.00;;;11.00
24639;BMP180;1641;51.306;12.384;2023-04-25T13:27:43;99642.00;;;11.20
24639;BMP180;1641;51.306;12.384;2023-04-25T13:30:10;99643.00;;;11.50
24639;BMP180;1641;51.306;12.384;2023-04-25T13:32:41;99646.00;;;11.20
24639;BMP180;1641;51.306;12.384;2023-04-25T13:35:09;99650.00;;;11.00
24639;BMP180;1641;51.306;12.384;2023-04-25T13:37:35;99634.00;;;11.30
24639;BMP180;1641;51.306;12.384;2023-04-25T13:40:01;99649.00;;;11.90
24639;BMP180;1641;51.306;12.384;2023-04-25T13:42:29;99647.00;;;11.70
24639;BMP180;1641;51.306;12.384;2023-04-25T13:45:00;99635.00;;;12.30
24639;BMP180;1641;51.306;12.384;2023-04-25T13:47:26;99649.00;;;12.30
24639;BMP180;1641;51.306;12.384;2023-04-25T13:49:51;99655.00;;;12.00
24639;BMP180;1641;51.306;12.384;2023-04-25T13:52:39;99658.00;;;12.10
24639;BMP180;1641;51.306;12.384;2023-04-25T13:55:05;99650.00;;;12.00
24639;BMP180;1641;51.306;12.384;2023-04-25T13:57:35;99650.00;;;11.80
24639;BMP180;1641;51.306;12.384;2023-04-25T14:00:04;99649.00;;;11.70
24639;BMP180;1641;51.306;12.384;2023-04-25T14:02:34;99638.00;;;12.30
24639;BMP180;1641;51.306;12.384;2023-04-25T14:04:59;99652.00;;;13.20
24639;BMP180;1641;51.306;12.384;2023-04-25T14:07:31;99667.00;;;12.10
24639;BMP180;1641;51.306;12.384;2023-04-25T14:09:56;99663.00;;;12.00
24639;BMP180;1641;51.306;12.384;2023-04-25T14:12:31;99658.00;;;12.10
24639;BMP180;1641;51.306;12.384;2023-04-25T14:15:03;99660.00;;;12.50